KLM80Y LIML-EHAM
Flight info
| Callsign | KLM80Y |
|---|---|
| Flight time | N/A |
| Altitude | 36000 |
| Route | SRN6AXARLES2A/35 ARLES DCT PUNSA DCT VADEM DCT GILIR DCT PENDU DCT IXILU DCT EPL DCT ROUSY DCT KOMOB DCT BUB Y28 HELEN |
| Aircraft | B739/M-SDE2E3FGIJ1RWY/LB1 |
Departure
| Time | N/A |
|---|---|
| Airport | Milano Linate Airport (LIML) |
Arrival
| Time | 2026-04-28 21:20 |
|---|---|
| Airport | Amsterdam Airport Schiphol (EHAM) |
| Time | Latitude | Longitude | Altitude | Speed | Heading |
|---|---|---|---|---|---|
| 2026-04-28 20:38 | 50.28822 | 5.21749 | 36164 ft | 446 kts | 322° |
| 2026-04-28 20:38 | 50.33876 | 5.16246 | 36167 ft | 445 kts | 323° |
| 2026-04-28 20:39 | 50.38982 | 5.10662 | 36154 ft | 445 kts | 323° |
| 2026-04-28 20:39 | 50.44056 | 5.05097 | 36161 ft | 445 kts | 323° |
| 2026-04-28 20:40 | 50.49091 | 4.99561 | 36181 ft | 444 kts | 323° |
| 2026-04-28 20:40 | 50.54146 | 4.93989 | 36183 ft | 444 kts | 323° |
| 2026-04-28 20:41 | 50.59209 | 4.88391 | 36198 ft | 445 kts | 324° |
| 2026-04-28 20:41 | 50.64278 | 4.82773 | 36190 ft | 446 kts | 324° |
| 2026-04-28 20:42 | 50.69354 | 4.77132 | 36191 ft | 448 kts | 324° |
| 2026-04-28 20:42 | 50.74455 | 4.71448 | 36187 ft | 450 kts | 324° |
| 2026-04-28 20:43 | 50.79565 | 4.65736 | 36203 ft | 451 kts | 326° |
| 2026-04-28 20:43 | 50.84737 | 4.59944 | 35667 ft | 465 kts | 326° |
| 2026-04-28 20:43 | 50.87387 | 4.56958 | 35005 ft | 467 kts | 324° |
| 2026-04-28 20:44 | 50.89839 | 4.53573 | 34207 ft | 471 kts | 315° |
| 2026-04-28 20:44 | 50.91955 | 4.49595 | 33299 ft | 474 kts | 306° |
| 2026-04-28 20:44 | 50.93712 | 4.45179 | 32505 ft | 473 kts | 302° |
| 2026-04-28 20:44 | 50.95381 | 4.40736 | 31955 ft | 467 kts | 302° |
| 2026-04-28 20:45 | 50.97031 | 4.36329 | 31355 ft | 462 kts | 302° |
| 2026-04-28 20:45 | 50.98677 | 4.31974 | 30781 ft | 457 kts | 303° |
| 2026-04-28 20:45 | 51.00319 | 4.27674 | 30207 ft | 452 kts | 303° |
| 2026-04-28 20:45 | 51.01948 | 4.23437 | 29559 ft | 448 kts | 303° |
| 2026-04-28 20:46 | 51.03565 | 4.19242 | 28981 ft | 442 kts | 303° |
| 2026-04-28 20:46 | 51.05155 | 4.15109 | 28447 ft | 436 kts | 303° |
| 2026-04-28 20:46 | 51.06726 | 4.11018 | 27895 ft | 431 kts | 303° |
| 2026-04-28 20:46 | 51.08285 | 4.06987 | 27341 ft | 426 kts | 306° |
| 2026-04-28 20:47 | 51.10098 | 4.03308 | 26795 ft | 419 kts | 315° |
| 2026-04-28 20:47 | 51.12212 | 4.00216 | 26318 ft | 410 kts | 325° |
| 2026-04-28 20:47 | 51.14508 | 3.97554 | 25797 ft | 406 kts | 327° |
| 2026-04-28 20:47 | 51.16789 | 3.94943 | 25275 ft | 403 kts | 326° |
| 2026-04-28 20:48 | 51.19042 | 3.92310 | 24758 ft | 400 kts | 326° |
| 2026-04-28 20:48 | 51.21286 | 3.89729 | 24242 ft | 396 kts | 331° |
| 2026-04-28 20:48 | 51.23749 | 3.87860 | 23727 ft | 389 kts | 344° |
| 2026-04-28 20:48 | 51.26357 | 3.86887 | 23132 ft | 383 kts | 355° |
| 2026-04-28 20:49 | 51.29008 | 3.86698 | 22607 ft | 377 kts | 2° |
| 2026-04-28 20:49 | 51.31613 | 3.86667 | 22088 ft | 374 kts | 2° |
| 2026-04-28 20:49 | 51.34207 | 3.86651 | 21610 ft | 370 kts | 2° |
| 2026-04-28 20:49 | 51.36767 | 3.86628 | 21105 ft | 367 kts | 2° |
| 2026-04-28 20:50 | 51.39311 | 3.86591 | 20620 ft | 364 kts | 2° |
| 2026-04-28 20:50 | 51.41837 | 3.86544 | 20142 ft | 362 kts | 2° |
| 2026-04-28 20:50 | 51.44342 | 3.86490 | 19666 ft | 359 kts | 1° |
| 2026-04-28 20:50 | 51.46841 | 3.86433 | 19197 ft | 358 kts | 1° |
| 2026-04-28 20:51 | 51.49322 | 3.86374 | 18730 ft | 356 kts | 2° |
| 2026-04-28 20:51 | 51.51795 | 3.86315 | 18201 ft | 355 kts | 1° |
| 2026-04-28 20:51 | 51.54246 | 3.86255 | 17691 ft | 352 kts | 2° |
| 2026-04-28 20:51 | 51.55873 | 3.86216 | 17373 ft | 350 kts | 2° |
| 2026-04-28 20:52 | 51.59117 | 3.86137 | 16742 ft | 346 kts | 2° |
| 2026-04-28 20:52 | 51.61514 | 3.86080 | 16276 ft | 344 kts | 2° |
| 2026-04-28 20:52 | 51.63903 | 3.86022 | 15805 ft | 342 kts | 2° |
| 2026-04-28 20:52 | 51.66266 | 3.85965 | 15359 ft | 339 kts | 2° |
| 2026-04-28 20:53 | 51.70952 | 3.86069 | 14447 ft | 332 kts | 14° |
| 2026-04-28 20:53 | 51.73065 | 3.87286 | 14013 ft | 325 kts | 31° |
| 2026-04-28 20:53 | 51.74881 | 3.89379 | 13537 ft | 320 kts | 43° |
| 2026-04-28 20:54 | 51.76537 | 3.91765 | 13077 ft | 318 kts | 44° |
| 2026-04-28 20:54 | 51.78161 | 3.94161 | 12644 ft | 315 kts | 44° |
| 2026-04-28 20:54 | 51.79774 | 3.96538 | 12193 ft | 313 kts | 44° |
| 2026-04-28 20:54 | 51.81378 | 3.98888 | 11759 ft | 311 kts | 44° |
| 2026-04-28 20:55 | 51.82974 | 4.01212 | 11317 ft | 309 kts | 43° |
| 2026-04-28 20:55 | 51.84581 | 4.03545 | 10894 ft | 308 kts | 43° |
| 2026-04-28 20:55 | 51.86157 | 4.05830 | 10711 ft | 298 kts | 43° |
| 2026-04-28 20:55 | 51.87668 | 4.08018 | 10560 ft | 288 kts | 43° |
| 2026-04-28 20:56 | 51.89129 | 4.10135 | 10424 ft | 277 kts | 44° |
| 2026-04-28 20:56 | 51.90544 | 4.12186 | 10306 ft | 267 kts | 44° |
| 2026-04-28 20:56 | 51.91898 | 4.14153 | 10197 ft | 259 kts | 44° |
| 2026-04-28 20:56 | 51.93233 | 4.16092 | 10101 ft | 254 kts | 44° |
| 2026-04-28 20:57 | 51.94553 | 4.18014 | 10019 ft | 257 kts | 44° |
| 2026-04-28 20:57 | 51.95897 | 4.19973 | 9924 ft | 262 kts | 44° |
| 2026-04-28 20:57 | 51.96798 | 4.21288 | 9853 ft | 264 kts | 44° |
| 2026-04-28 20:57 | 51.98175 | 4.23296 | 9731 ft | 263 kts | 44° |
| 2026-04-28 20:58 | 51.99517 | 4.25253 | 9626 ft | 262 kts | 44° |
| 2026-04-28 20:58 | 52.00861 | 4.27216 | 9533 ft | 260 kts | 44° |
| 2026-04-28 20:58 | 52.02208 | 4.29185 | 9434 ft | 259 kts | 44° |
| 2026-04-28 20:58 | 52.03546 | 4.31143 | 9345 ft | 258 kts | 44° |
| 2026-04-28 20:59 | 52.04877 | 4.33093 | 9234 ft | 257 kts | 44° |
| 2026-04-28 20:59 | 52.06202 | 4.35034 | 9132 ft | 257 kts | 44° |
| 2026-04-28 20:59 | 52.07530 | 4.36982 | 9035 ft | 256 kts | 44° |
| 2026-04-28 20:59 | 52.08850 | 4.38920 | 8937 ft | 256 kts | 44° |
| 2026-04-28 21:00 | 52.10167 | 4.40856 | 8853 ft | 255 kts | 44° |
| 2026-04-28 21:00 | 52.11485 | 4.42794 | 8757 ft | 255 kts | 44° |
| 2026-04-28 21:00 | 52.12797 | 4.44725 | 8659 ft | 255 kts | 44° |
| 2026-04-28 21:00 | 52.14111 | 4.46662 | 8565 ft | 255 kts | 44° |
| 2026-04-28 21:01 | 52.15426 | 4.48600 | 8469 ft | 255 kts | 44° |
| 2026-04-28 21:01 | 52.16734 | 4.50530 | 8376 ft | 255 kts | 44° |
| 2026-04-28 21:01 | 52.18052 | 4.52477 | 8270 ft | 256 kts | 44° |
| 2026-04-28 21:01 | 52.19367 | 4.54421 | 8163 ft | 256 kts | 44° |
| 2026-04-28 21:02 | 52.20691 | 4.56379 | 8067 ft | 256 kts | 44° |
| 2026-04-28 21:02 | 52.22003 | 4.58323 | 7964 ft | 255 kts | 44° |
| 2026-04-28 21:02 | 52.23318 | 4.60270 | 7864 ft | 255 kts | 44° |
| 2026-04-28 21:02 | 52.24629 | 4.62214 | 7776 ft | 254 kts | 44° |
| 2026-04-28 21:03 | 52.25937 | 4.64154 | 7674 ft | 254 kts | 44° |
| 2026-04-28 21:03 | 52.27241 | 4.66090 | 7573 ft | 253 kts | 44° |
| 2026-04-28 21:03 | 52.28540 | 4.68010 | 7476 ft | 251 kts | 41° |
| 2026-04-28 21:03 | 52.30067 | 4.69278 | 7368 ft | 246 kts | 13° |
| 2026-04-28 21:04 | 52.31751 | 4.69211 | 7279 ft | 243 kts | 349° |
| 2026-04-28 21:04 | 52.33273 | 4.67991 | 6985 ft | 249 kts | 324° |
| 2026-04-28 21:04 | 52.34392 | 4.65805 | 6708 ft | 255 kts | 300° |
| 2026-04-28 21:04 | 52.34754 | 4.62968 | 6274 ft | 264 kts | 262° |
| 2026-04-28 21:05 | 52.34001 | 4.60283 | 5974 ft | 261 kts | 229° |
| 2026-04-28 21:05 | 52.32849 | 4.58017 | 5673 ft | 261 kts | 230° |
| 2026-04-28 21:05 | 52.31753 | 4.55618 | 5336 ft | 263 kts | 233° |
| 2026-04-28 21:05 | 52.30723 | 4.53146 | 5017 ft | 264 kts | 235° |
| 2026-04-28 21:06 | 52.29722 | 4.50626 | 4680 ft | 265 kts | 236° |
| 2026-04-28 21:06 | 52.28729 | 4.48087 | 4350 ft | 264 kts | 235° |
| 2026-04-28 21:06 | 52.27696 | 4.45664 | 4003 ft | 256 kts | 221° |
| 2026-04-28 21:06 | 52.26263 | 4.44295 | 3738 ft | 235 kts | 187° |
| 2026-04-28 21:07 | 52.24701 | 4.44195 | 3466 ft | 218 kts | 165° |
| 2026-04-28 21:07 | 52.23294 | 4.44881 | 3200 ft | 207 kts | 145° |
| 2026-04-28 21:07 | 52.22107 | 4.46193 | 2738 ft | 207 kts | 127° |
| 2026-04-28 21:07 | 52.21395 | 4.48160 | 2447 ft | 201 kts | 108° |
| 2026-04-28 21:08 | 52.20954 | 4.50288 | 2176 ft | 195 kts | 102° |
| 2026-04-28 21:08 | 52.20963 | 4.52393 | 2021 ft | 180 kts | 78° |
| 2026-04-28 21:08 | 52.21362 | 4.54222 | 1976 ft | 163 kts | 62° |
| 2026-04-28 21:08 | 52.21948 | 4.55663 | 1972 ft | 145 kts | 63° |
| 2026-04-28 21:09 | 52.22487 | 4.57046 | 1992 ft | 142 kts | 64° |
| 2026-04-28 21:09 | 52.22998 | 4.58365 | 1982 ft | 136 kts | 64° |
| 2026-04-28 21:09 | 52.23492 | 4.59647 | 1995 ft | 133 kts | 64° |
| 2026-04-28 21:09 | 52.23984 | 4.60924 | 1984 ft | 132 kts | 64° |
| 2026-04-28 21:10 | 52.24491 | 4.62249 | 2009 ft | 148 kts | 64° |
| 2026-04-28 21:10 | 52.25043 | 4.63679 | 1993 ft | 148 kts | 62° |
| 2026-04-28 21:10 | 52.25666 | 4.65019 | 1979 ft | 147 kts | 58° |
| 2026-04-28 21:10 | 52.26295 | 4.66261 | 1961 ft | 137 kts | 57° |
| 2026-04-28 21:11 | 52.26811 | 4.67518 | 1986 ft | 134 kts | 66° |
| 2026-04-28 21:11 | 52.26870 | 4.68954 | 2000 ft | 135 kts | 115° |
| 2026-04-28 21:11 | 52.26030 | 4.69807 | 2026 ft | 155 kts | 153° |
| 2026-04-28 21:11 | 52.24976 | 4.70305 | 2011 ft | 160 kts | 152° |
| 2026-04-28 21:12 | 52.23929 | 4.70811 | 1992 ft | 154 kts | 152° |
| 2026-04-28 21:12 | 52.22874 | 4.71109 | 1971 ft | 164 kts | 179° |
| 2026-04-28 21:12 | 52.21880 | 4.69979 | 2017 ft | 194 kts | 234° |
| 2026-04-28 21:12 | 52.21314 | 4.67936 | 2007 ft | 201 kts | 242° |
| 2026-04-28 21:13 | 52.20768 | 4.65859 | 1986 ft | 198 kts | 242° |
| 2026-04-28 21:13 | 52.20231 | 4.63801 | 1969 ft | 196 kts | 242° |
| 2026-04-28 21:13 | 52.19696 | 4.61769 | 1987 ft | 195 kts | 242° |
| 2026-04-28 21:13 | 52.19158 | 4.59720 | 1989 ft | 197 kts | 243° |
| 2026-04-28 21:14 | 52.18612 | 4.57682 | 1981 ft | 196 kts | 242° |
| 2026-04-28 21:14 | 52.18070 | 4.55670 | 1977 ft | 196 kts | 242° |
| 2026-04-28 21:14 | 52.17681 | 4.53534 | 1943 ft | 196 kts | 275° |
| 2026-04-28 21:14 | 52.18203 | 4.51657 | 1998 ft | 180 kts | 331° |
| 2026-04-28 21:15 | 52.19275 | 4.51095 | 1988 ft | 156 kts | 21° |
| 2026-04-28 21:15 | 52.20069 | 4.51987 | 2004 ft | 136 kts | 60° |
| 2026-04-28 21:15 | 52.20683 | 4.53201 | 1999 ft | 141 kts | 56° |
| 2026-04-28 21:15 | 52.21306 | 4.54440 | 1986 ft | 140 kts | 57° |
| 2026-04-28 21:16 | 52.21907 | 4.55658 | 1980 ft | 135 kts | 59° |
| 2026-04-28 21:16 | 52.22447 | 4.56890 | 1988 ft | 132 kts | 63° |
| 2026-04-28 21:16 | 52.22951 | 4.58149 | 1983 ft | 133 kts | 64° |
| 2026-04-28 21:16 | 52.23437 | 4.59402 | 1967 ft | 132 kts | 64° |
| 2026-04-28 21:17 | 52.23928 | 4.60681 | 1821 ft | 134 kts | 64° |
| 2026-04-28 21:17 | 52.24418 | 4.61964 | 1653 ft | 133 kts | 63° |
| 2026-04-28 21:17 | 52.24902 | 4.63231 | 1457 ft | 132 kts | 63° |
| 2026-04-28 21:17 | 52.25394 | 4.64523 | 1286 ft | 134 kts | 62° |
| 2026-04-28 21:18 | 52.25878 | 4.65786 | 1092 ft | 127 kts | 62° |
| 2026-04-28 21:18 | 52.26320 | 4.66944 | 936 ft | 119 kts | 61° |
| 2026-04-28 21:18 | 52.26762 | 4.68106 | 786 ft | 120 kts | 59° |
| 2026-04-28 21:18 | 52.27212 | 4.69283 | 664 ft | 127 kts | 58° |
| 2026-04-28 21:19 | 52.27681 | 4.70505 | 498 ft | 126 kts | 58° |
| 2026-04-28 21:19 | 52.28156 | 4.71728 | 327 ft | 128 kts | 58° |
| 2026-04-28 21:19 | 52.28633 | 4.72984 | 148 ft | 132 kts | 57° |
| 2026-04-28 21:19 | 52.29103 | 4.74227 | 27 ft | 123 kts | 58° |
| 2026-04-28 21:20 | 52.29509 | 4.75281 | -4 ft | 97 kts | 58° |
| 2026-04-28 21:20 | 52.29812 | 4.76067 | -8 ft | 63 kts | 58° |
| 2026-04-28 21:20 | 52.29936 | 4.76384 | -7 ft | 15 kts | 56° |
| 2026-04-28 21:20 | 52.30004 | 4.76512 | -4 ft | 15 kts | 32° |
| 2026-04-28 21:21 | 52.30093 | 4.76589 | -4 ft | 14 kts | 31° |
| 2026-04-28 21:21 | 52.30169 | 4.76659 | -3 ft | 11 kts | 29° |
| 2026-04-28 21:21 | 52.30237 | 4.76718 | -4 ft | 11 kts | 28° |
| 2026-04-28 21:21 | 52.30296 | 4.76789 | -4 ft | 11 kts | 51° |
| 2026-04-28 21:22 | 52.30336 | 4.76887 | -4 ft | 10 kts | 58° |
| 2026-04-28 21:22 | 52.30374 | 4.76983 | -4 ft | 10 kts | 57° |
| 2026-04-28 21:22 | 52.30430 | 4.77035 | -4 ft | 10 kts | 354° |
| 2026-04-28 21:22 | 52.30470 | 4.77006 | -4 ft | 10 kts | 327° |
| 2026-04-28 21:23 | 52.30544 | 4.76931 | -3 ft | 9 kts | 328° |
| 2026-04-28 21:23 | 52.30593 | 4.76868 | -3 ft | 9 kts | 304° |
| 2026-04-28 21:23 | 52.30629 | 4.76786 | -3 ft | 9 kts | 316° |
| 2026-04-28 21:23 | 52.30678 | 4.76729 | -3 ft | 9 kts | 327° |
| 2026-04-28 21:24 | 52.30690 | 4.76677 | -3 ft | 3 kts | 239° |
| 2026-04-28 21:24 | 52.30681 | 4.76644 | -3 ft | 3 kts | 246° |
| 2026-04-28 21:24 | 52.30672 | 4.76609 | -3 ft | 3 kts | 248° |
| 2026-04-28 21:24 | 52.30667 | 4.76591 | -3 ft | 0 kts | 248° |